sensor_id;sensor_type;location;lat;lon;timestamp;P1;durP1;ratioP1;P2;durP2;ratioP2
30743;SDS011;17486;46.738;7.622;2023-11-19T00:01:00;7.93;;;5.70;;
30743;SDS011;17486;46.738;7.622;2023-11-19T00:03:26;7.32;;;5.80;;
30743;SDS011;17486;46.738;7.622;2023-11-19T00:05:51;6.40;;;5.70;;
30743;SDS011;17486;46.738;7.622;2023-11-19T00:08:17;7.03;;;5.53;;
30743;SDS011;17486;46.738;7.622;2023-11-19T00:10:42;7.68;;;5.97;;
30743;SDS011;17486;46.738;7.622;2023-11-19T00:13:07;6.15;;;5.55;;
30743;SDS011;17486;46.738;7.622;2023-11-19T00:15:33;6.45;;;5.68;;
30743;SDS011;17486;46.738;7.622;2023-11-19T00:17:58;7.13;;;5.43;;
30743;SDS011;17486;46.738;7.622;2023-11-19T00:20:24;6.18;;;5.38;;
30743;SDS011;17486;46.738;7.622;2023-11-19T00:22:49;7.35;;;5.75;;
30743;SDS011;17486;46.738;7.622;2023-11-19T00:25:18;6.90;;;5.63;;
30743;SDS011;17486;46.738;7.622;2023-11-19T00:27:44;6.50;;;5.57;;
30743;SDS011;17486;46.738;7.622;2023-11-19T00:30:10;6.38;;;5.78;;
30743;SDS011;17486;46.738;7.622;2023-11-19T00:32:36;8.25;;;5.93;;
30743;SDS011;17486;46.738;7.622;2023-11-19T00:35:03;5.80;;;5.22;;
30743;SDS011;17486;46.738;7.622;2023-11-19T00:37:29;6.60;;;5.53;;
30743;SDS011;17486;46.738;7.622;2023-11-19T00:39:54;6.13;;;5.53;;
30743;SDS011;17486;46.738;7.622;2023-11-19T00:42:21;7.30;;;5.93;;
30743;SDS011;17486;46.738;7.622;2023-11-19T00:44:47;7.20;;;6.00;;
30743;SDS011;17486;46.738;7.622;2023-11-19T00:47:12;6.57;;;5.97;;
30743;SDS011;17486;46.738;7.622;2023-11-19T00:49:38;6.95;;;5.85;;
30743;SDS011;17486;46.738;7.622;2023-11-19T00:52:03;6.15;;;5.55;;
30743;SDS011;17486;46.738;7.622;2023-11-19T00:54:29;5.88;;;5.15;;
30743;SDS011;17486;46.738;7.622;2023-11-19T00:56:54;5.93;;;5.32;;
30743;SDS011;17486;46.738;7.622;2023-11-19T00:59:20;7.18;;;6.05;;
30743;SDS011;17486;46.738;7.622;2023-11-19T01:01:46;6.95;;;6.25;;
30743;SDS011;17486;46.738;7.622;2023-11-19T01:04:14;7.15;;;6.38;;
30743;SDS011;17486;46.738;7.622;2023-11-19T01:06:40;8.15;;;6.00;;
30743;SDS011;17486;46.738;7.622;2023-11-19T01:09:07;8.35;;;6.25;;
30743;SDS011;17486;46.738;7.622;2023-11-19T01:11:33;7.90;;;6.50;;
30743;SDS011;17486;46.738;7.622;2023-11-19T01:13:59;7.60;;;6.05;;
30743;SDS011;17486;46.738;7.622;2023-11-19T01:16:25;7.25;;;6.10;;
30743;SDS011;17486;46.738;7.622;2023-11-19T01:18:51;7.40;;;6.32;;
30743;SDS011;17486;46.738;7.622;2023-11-19T01:21:17;6.90;;;6.20;;
30743;SDS011;17486;46.738;7.622;2023-11-19T01:23:43;7.38;;;5.88;;
30743;SDS011;17486;46.738;7.622;2023-11-19T01:26:09;6.82;;;6.13;;
30743;SDS011;17486;46.738;7.622;2023-11-19T01:28:38;8.13;;;6.28;;
30743;SDS011;17486;46.738;7.622;2023-11-19T01:31:10;7.45;;;5.88;;
30743;SDS011;17486;46.738;7.622;2023-11-19T01:33:40;7.30;;;6.22;;
30743;SDS011;17486;46.738;7.622;2023-11-19T01:36:06;7.50;;;6.25;;
30743;SDS011;17486;46.738;7.622;2023-11-19T01:38:33;8.02;;;6.25;;
30743;SDS011;17486;46.738;7.622;2023-11-19T01:40:59;8.77;;;6.82;;
30743;SDS011;17486;46.738;7.622;2023-11-19T01:43:37;6.90;;;6.20;;
30743;SDS011;17486;46.738;7.622;2023-11-19T01:46:06;7.47;;;6.00;;
30743;SDS011;17486;46.738;7.622;2023-11-19T01:48:34;6.85;;;6.15;;
30743;SDS011;17486;46.738;7.622;2023-11-19T01:51:04;8.80;;;6.68;;
30743;SDS011;17486;46.738;7.622;2023-11-19T01:53:30;6.22;;;5.60;;
30743;SDS011;17486;46.738;7.622;2023-11-19T01:55:57;6.78;;;6.07;;
30743;SDS011;17486;46.738;7.622;2023-11-19T01:58:23;9.07;;;6.63;;
30743;SDS011;17486;46.738;7.622;2023-11-19T02:00:49;6.40;;;5.63;;
30743;SDS011;17486;46.738;7.622;2023-11-19T02:03:15;10.38;;;6.68;;
30743;SDS011;17486;46.738;7.622;2023-11-19T02:05:41;6.75;;;5.93;;
30743;SDS011;17486;46.738;7.622;2023-11-19T02:08:07;7.90;;;6.55;;
30743;SDS011;17486;46.738;7.622;2023-11-19T02:10:33;7.28;;;6.57;;
30743;SDS011;17486;46.738;7.622;2023-11-19T02:42:49;6.30;;;5.70;;
30743;SDS011;17486;46.738;7.622;2023-11-19T02:45:15;6.32;;;5.68;;
30743;SDS011;17486;46.738;7.622;2023-11-19T02:47:41;8.25;;;5.20;;
30743;SDS011;17486;46.738;7.622;2023-11-19T02:50:12;5.07;;;4.57;;
30743;SDS011;17486;46.738;7.622;2023-11-19T02:52:43;5.43;;;4.45;;
30743;SDS011;17486;46.738;7.622;2023-11-19T02:55:10;3.97;;;3.67;;
30743;SDS011;17486;46.738;7.622;2023-11-19T02:57:40;4.90;;;3.88;;
30743;SDS011;17486;46.738;7.622;2023-11-19T03:00:17;6.10;;;5.50;;
30743;SDS011;17486;46.738;7.622;2023-11-19T03:02:46;5.28;;;4.75;;
30743;SDS011;17486;46.738;7.622;2023-11-19T03:05:13;6.55;;;5.65;;
30743;SDS011;17486;46.738;7.622;2023-11-19T03:07:40;5.90;;;5.32;;
30743;SDS011;17486;46.738;7.622;2023-11-19T03:10:07;5.38;;;4.95;;
30743;SDS011;17486;46.738;7.622;2023-11-19T03:12:34;5.57;;;4.65;;
30743;SDS011;17486;46.738;7.622;2023-11-19T03:14:59;6.55;;;5.07;;
30743;SDS011;17486;46.738;7.622;2023-11-19T03:17:24;5.20;;;4.57;;
30743;SDS011;17486;46.738;7.622;2023-11-19T03:19:50;4.60;;;4.20;;
30743;SDS011;17486;46.738;7.622;2023-11-19T03:22:15;5.80;;;4.97;;
30743;SDS011;17486;46.738;7.622;2023-11-19T03:24:41;5.15;;;4.65;;
30743;SDS011;17486;46.738;7.622;2023-11-19T03:27:06;5.22;;;4.30;;
30743;SDS011;17486;46.738;7.622;2023-11-19T03:29:31;4.97;;;4.32;;
30743;SDS011;17486;46.738;7.622;2023-11-19T03:31:57;6.47;;;4.22;;
30743;SDS011;17486;46.738;7.622;2023-11-19T03:34:22;5.15;;;4.65;;
30743;SDS011;17486;46.738;7.622;2023-11-19T03:36:47;4.93;;;4.00;;
30743;SDS011;17486;46.738;7.622;2023-11-19T03:39:14;4.13;;;3.70;;
30743;SDS011;17486;46.738;7.622;2023-11-19T03:41:39;5.60;;;3.45;;
30743;SDS011;17486;46.738;7.622;2023-11-19T03:44:04;5.32;;;3.30;;
30743;SDS011;17486;46.738;7.622;2023-11-19T03:46:30;3.40;;;2.90;;
30743;SDS011;17486;46.738;7.622;2023-11-19T03:48:56;3.75;;;2.58;;
30743;SDS011;17486;46.738;7.622;2023-11-19T03:51:21;3.78;;;2.75;;
30743;SDS011;17486;46.738;7.622;2023-11-19T03:53:46;4.25;;;2.95;;
30743;SDS011;17486;46.738;7.622;2023-11-19T03:56:12;4.50;;;2.75;;
30743;SDS011;17486;46.738;7.622;2023-11-19T03:58:38;6.82;;;2.40;;
30743;SDS011;17486;46.738;7.622;2023-11-19T04:01:13;3.00;;;2.33;;
30743;SDS011;17486;46.738;7.622;2023-11-19T04:03:39;4.03;;;2.63;;
30743;SDS011;17486;46.738;7.622;2023-11-19T04:06:04;2.58;;;2.17;;
30743;SDS011;17486;46.738;7.622;2023-11-19T04:08:30;3.22;;;2.08;;
30743;SDS011;17486;46.738;7.622;2023-11-19T04:10:55;2.67;;;2.15;;
30743;SDS011;17486;46.738;7.622;2023-11-19T04:13:21;2.53;;;2.00;;
30743;SDS011;17486;46.738;7.622;2023-11-19T04:15:48;2.60;;;2.25;;
30743;SDS011;17486;46.738;7.622;2023-11-19T04:18:14;4.35;;;2.00;;
30743;SDS011;17486;46.738;7.622;2023-11-19T04:20:39;2.15;;;1.95;;
30743;SDS011;17486;46.738;7.622;2023-11-19T04:23:07;2.75;;;2.30;;
30743;SDS011;17486;46.738;7.622;2023-11-19T04:25:33;2.28;;;1.67;;
30743;SDS011;17486;46.738;7.622;2023-11-19T04:27:58;2.20;;;1.98;;
30743;SDS011;17486;46.738;7.622;2023-11-19T04:30:23;2.25;;;2.03;;
30743;SDS011;17486;46.738;7.622;2023-11-19T04:32:49;2.20;;;1.58;;
30743;SDS011;17486;46.738;7.622;2023-11-19T04:35:14;2.97;;;2.22;;
30743;SDS011;17486;46.738;7.622;2023-11-19T04:37:41;2.97;;;2.40;;
30743;SDS011;17486;46.738;7.622;2023-11-19T04:40:07;2.80;;;2.60;;
30743;SDS011;17486;46.738;7.622;2023-11-19T04:42:32;5.13;;;2.97;;
30743;SDS011;17486;46.738;7.622;2023-11-19T04:44:58;3.17;;;2.88;;
30743;SDS011;17486;46.738;7.622;2023-11-19T04:47:23;3.83;;;3.38;;
30743;SDS011;17486;46.738;7.622;2023-11-19T04:49:49;3.20;;;2.90;;
30743;SDS011;17486;46.738;7.622;2023-11-19T04:52:14;2.60;;;2.00;;
30743;SDS011;17486;46.738;7.622;2023-11-19T04:54:43;3.22;;;2.35;;
30743;SDS011;17486;46.738;7.622;2023-11-19T04:57:08;3.67;;;2.38;;
30743;SDS011;17486;46.738;7.622;2023-11-19T04:59:37;3.42;;;3.10;;
30743;SDS011;17486;46.738;7.622;2023-11-19T05:02:03;2.20;;;2.00;;
30743;SDS011;17486;46.738;7.622;2023-11-19T05:04:29;4.05;;;2.63;;
30743;SDS011;17486;46.738;7.622;2023-11-19T05:06:54;3.95;;;3.20;;
30743;SDS011;17486;46.738;7.622;2023-11-19T05:09:20;4.40;;;3.97;;
30743;SDS011;17486;46.738;7.622;2023-11-19T05:11:45;5.63;;;4.85;;
30743;SDS011;17486;46.738;7.622;2023-11-19T05:14:11;5.22;;;4.55;;
30743;SDS011;17486;46.738;7.622;2023-11-19T05:16:39;5.65;;;4.80;;
30743;SDS011;17486;46.738;7.622;2023-11-19T05:19:04;5.03;;;4.57;;
30743;SDS011;17486;46.738;7.622;2023-11-19T05:21:30;5.55;;;5.05;;
30743;SDS011;17486;46.738;7.622;2023-11-19T05:23:55;6.00;;;5.07;;
30743;SDS011;17486;46.738;7.622;2023-11-19T05:26:22;5.78;;;5.18;;
30743;SDS011;17486;46.738;7.622;2023-11-19T05:28:49;5.70;;;5.10;;
30743;SDS011;17486;46.738;7.622;2023-11-19T05:31:15;5.50;;;5.00;;
30743;SDS011;17486;46.738;7.622;2023-11-19T05:33:41;5.97;;;5.47;;
30743;SDS011;17486;46.738;7.622;2023-11-19T05:36:07;5.55;;;5.05;;
30743;SDS011;17486;46.738;7.622;2023-11-19T05:38:33;6.18;;;5.57;;
30743;SDS011;17486;46.738;7.622;2023-11-19T05:40:59;17.02;;;15.23;;
30743;SDS011;17486;46.738;7.622;2023-11-19T05:43:24;15.55;;;13.95;;
30743;SDS011;17486;46.738;7.622;2023-11-19T05:45:50;11.13;;;10.02;;
30743;SDS011;17486;46.738;7.622;2023-11-19T05:48:16;8.55;;;7.75;;
30743;SDS011;17486;46.738;7.622;2023-11-19T05:50:42;7.00;;;6.30;;
30743;SDS011;17486;46.738;7.622;2023-11-19T05:53:07;7.75;;;6.63;;
30743;SDS011;17486;46.738;7.622;2023-11-19T05:55:35;8.80;;;7.97;;
30743;SDS011;17486;46.738;7.622;2023-11-19T05:58:02;7.50;;;6.80;;
30743;SDS011;17486;46.738;7.622;2023-11-19T06:00:29;7.38;;;6.65;;
30743;SDS011;17486;46.738;7.622;2023-11-19T06:02:55;7.78;;;7.05;;
30743;SDS011;17486;46.738;7.622;2023-11-19T06:05:21;7.13;;;6.43;;
30743;SDS011;17486;46.738;7.622;2023-11-19T06:07:46;7.20;;;6.50;;
30743;SDS011;17486;46.738;7.622;2023-11-19T06:10:12;8.40;;;6.05;;
30743;SDS011;17486;46.738;7.622;2023-11-19T06:12:41;6.95;;;6.22;;
30743;SDS011;17486;46.738;7.622;2023-11-19T06:15:07;7.65;;;6.25;;
30743;SDS011;17486;46.738;7.622;2023-11-19T06:17:36;6.85;;;6.15;;
30743;SDS011;17486;46.738;7.622;2023-11-19T06:20:02;6.95;;;6.25;;
30743;SDS011;17486;46.738;7.622;2023-11-19T06:22:29;6.82;;;6.07;;
30743;SDS011;17486;46.738;7.622;2023-11-19T06:24:55;6.57;;;5.97;;
30743;SDS011;17486;46.738;7.622;2023-11-19T06:27:21;9.18;;;6.80;;
30743;SDS011;17486;46.738;7.622;2023-11-19T06:29:47;6.60;;;5.90;;
30743;SDS011;17486;46.738;7.622;2023-11-19T06:32:12;6.63;;;6.03;;
30743;SDS011;17486;46.738;7.622;2023-11-19T06:34:38;6.60;;;6.00;;
30743;SDS011;17486;46.738;7.622;2023-11-19T06:37:03;7.32;;;6.60;;
30743;SDS011;17486;46.738;7.622;2023-11-19T06:39:29;6.43;;;5.82;;
30743;SDS011;17486;46.738;7.622;2023-11-19T06:41:55;6.95;;;6.22;;
30743;SDS011;17486;46.738;7.622;2023-11-19T06:44:20;6.78;;;6.07;;
30743;SDS011;17486;46.738;7.622;2023-11-19T06:46:45;6.88;;;6.28;;
30743;SDS011;17486;46.738;7.622;2023-11-19T06:49:11;6.40;;;5.80;;
30743;SDS011;17486;46.738;7.622;2023-11-19T06:51:41;7.30;;;6.60;;
30743;SDS011;17486;46.738;7.622;2023-11-19T06:54:07;6.90;;;6.13;;
30743;SDS011;17486;46.738;7.622;2023-11-19T06:56:32;6.68;;;5.97;;
30743;SDS011;17486;46.738;7.622;2023-11-19T06:58:57;7.25;;;6.53;;
30743;SDS011;17486;46.738;7.622;2023-11-19T07:01:23;7.70;;;6.88;;
30743;SDS011;17486;46.738;7.622;2023-11-19T07:03:48;6.85;;;6.20;;
30743;SDS011;17486;46.738;7.622;2023-11-19T07:06:14;7.97;;;6.95;;
30743;SDS011;17486;46.738;7.622;2023-11-19T07:08:42;7.20;;;6.50;;
30743;SDS011;17486;46.738;7.622;2023-11-19T07:11:12;7.85;;;7.05;;
30743;SDS011;17486;46.738;7.622;2023-11-19T07:13:39;7.22;;;6.53;;
30743;SDS011;17486;46.738;7.622;2023-11-19T07:16:05;7.47;;;6.68;;
30743;SDS011;17486;46.738;7.622;2023-11-19T07:18:31;7.95;;;6.88;;
30743;SDS011;17486;46.738;7.622;2023-11-19T07:20:56;8.43;;;7.50;;
30743;SDS011;17486;46.738;7.622;2023-11-19T07:23:22;7.78;;;6.97;;
30743;SDS011;17486;46.738;7.622;2023-11-19T07:25:48;8.18;;;7.25;;
30743;SDS011;17486;46.738;7.622;2023-11-19T07:28:15;8.32;;;6.97;;
30743;SDS011;17486;46.738;7.622;2023-11-19T07:30:41;8.50;;;7.18;;
30743;SDS011;17486;46.738;7.622;2023-11-19T07:33:07;7.07;;;6.15;;
30743;SDS011;17486;46.738;7.622;2023-11-19T07:35:33;8.23;;;7.43;;
30743;SDS011;17486;46.738;7.622;2023-11-19T07:37:59;7.55;;;6.78;;
30743;SDS011;17486;46.738;7.622;2023-11-19T07:40:24;6.88;;;6.28;;
30743;SDS011;17486;46.738;7.622;2023-11-19T07:42:50;6.57;;;5.97;;
30743;SDS011;17486;46.738;7.622;2023-11-19T07:45:16;7.07;;;6.38;;
30743;SDS011;17486;46.738;7.622;2023-11-19T07:47:42;9.65;;;6.97;;
30743;SDS011;17486;46.738;7.622;2023-11-19T07:50:09;7.80;;;6.70;;
30743;SDS011;17486;46.738;7.622;2023-11-19T07:52:35;11.38;;;6.90;;
30743;SDS011;17486;46.738;7.622;2023-11-19T07:55:01;6.35;;;5.75;;
30743;SDS011;17486;46.738;7.622;2023-11-19T07:57:27;6.28;;;5.53;;
30743;SDS011;17486;46.738;7.622;2023-11-19T07:59:55;5.95;;;5.38;;
30743;SDS011;17486;46.738;7.622;2023-11-19T08:02:21;5.43;;;4.90;;
30743;SDS011;17486;46.738;7.622;2023-11-19T08:04:46;5.82;;;4.60;;
30743;SDS011;17486;46.738;7.622;2023-11-19T08:07:15;6.20;;;5.07;;
30743;SDS011;17486;46.738;7.622;2023-11-19T08:09:40;5.78;;;5.28;;
30743;SDS011;17486;46.738;7.622;2023-11-19T08:12:06;7.25;;;5.10;;
30743;SDS011;17486;46.738;7.622;2023-11-19T08:14:32;8.70;;;6.82;;
30743;SDS011;17486;46.738;7.622;2023-11-19T08:16:58;10.95;;;7.10;;
30743;SDS011;17486;46.738;7.622;2023-11-19T08:19:23;6.75;;;5.65;;
30743;SDS011;17486;46.738;7.622;2023-11-19T08:21:48;6.65;;;4.90;;
30743;SDS011;17486;46.738;7.622;2023-11-19T08:24:14;5.53;;;5.03;;
30743;SDS011;17486;46.738;7.622;2023-11-19T08:26:39;4.90;;;4.50;;
30743;SDS011;17486;46.738;7.622;2023-11-19T08:29:05;5.00;;;4.53;;
30743;SDS011;17486;46.738;7.622;2023-11-19T08:31:30;4.57;;;3.80;;
30743;SDS011;17486;46.738;7.622;2023-11-19T08:33:56;3.28;;;2.95;;
30743;SDS011;17486;46.738;7.622;2023-11-19T08:36:21;3.10;;;2.70;;
30743;SDS011;17486;46.738;7.622;2023-11-19T08:38:47;3.70;;;2.72;;
30743;SDS011;17486;46.738;7.622;2023-11-19T08:41:13;4.90;;;3.30;;
30743;SDS011;17486;46.738;7.622;2023-11-19T08:43:38;3.92;;;3.40;;
30743;SDS011;17486;46.738;7.622;2023-11-19T08:46:08;3.33;;;2.85;;
30743;SDS011;17486;46.738;7.622;2023-11-19T08:48:34;3.70;;;3.30;;
30743;SDS011;17486;46.738;7.622;2023-11-19T08:51:00;2.80;;;2.53;;
30743;SDS011;17486;46.738;7.622;2023-11-19T08:53:25;4.13;;;2.92;;
30743;SDS011;17486;46.738;7.622;2023-11-19T08:55:50;3.40;;;2.67;;
30743;SDS011;17486;46.738;7.622;2023-11-19T08:58:16;3.13;;;2.67;;
30743;SDS011;17486;46.738;7.622;2023-11-19T09:00:41;3.03;;;2.53;;
30743;SDS011;17486;46.738;7.622;2023-11-19T09:03:07;2.90;;;2.40;;
30743;SDS011;17486;46.738;7.622;2023-11-19T09:05:34;2.78;;;2.50;;
30743;SDS011;17486;46.738;7.622;2023-11-19T09:08:00;5.38;;;3.88;;
30743;SDS011;17486;46.738;7.622;2023-11-19T09:10:25;6.25;;;3.97;;
30743;SDS011;17486;46.738;7.622;2023-11-19T09:12:52;3.45;;;3.15;;
30743;SDS011;17486;46.738;7.622;2023-11-19T09:15:17;5.25;;;3.33;;
30743;SDS011;17486;46.738;7.622;2023-11-19T09:17:43;3.42;;;2.92;;
30743;SDS011;17486;46.738;7.622;2023-11-19T09:20:08;3.45;;;2.45;;
30743;SDS011;17486;46.738;7.622;2023-11-19T09:22:37;2.25;;;2.05;;
30743;SDS011;17486;46.738;7.622;2023-11-19T09:25:02;3.90;;;2.50;;
30743;SDS011;17486;46.738;7.622;2023-11-19T09:27:30;3.53;;;2.67;;
30743;SDS011;17486;46.738;7.622;2023-11-19T09:29:55;3.75;;;2.50;;
30743;SDS011;17486;46.738;7.622;2023-11-19T09:32:23;2.50;;;2.30;;
30743;SDS011;17486;46.738;7.622;2023-11-19T09:34:48;4.53;;;3.17;;
30743;SDS011;17486;46.738;7.622;2023-11-19T09:37:14;3.78;;;2.83;;
30743;SDS011;17486;46.738;7.622;2023-11-19T09:39:39;3.20;;;2.90;;
30743;SDS011;17486;46.738;7.622;2023-11-19T09:42:08;6.05;;;3.40;;
30743;SDS011;17486;46.738;7.622;2023-11-19T09:44:40;4.35;;;3.45;;
30743;SDS011;17486;46.738;7.622;2023-11-19T09:47:07;2.88;;;2.67;;
30743;SDS011;17486;46.738;7.622;2023-11-19T09:49:33;3.65;;;2.72;;
30743;SDS011;17486;46.738;7.622;2023-11-19T09:52:01;2.67;;;2.38;;
30743;SDS011;17486;46.738;7.622;2023-11-19T09:54:27;3.97;;;2.78;;
30743;SDS011;17486;46.738;7.622;2023-11-19T09:56:54;3.22;;;2.90;;
30743;SDS011;17486;46.738;7.622;2023-11-19T09:59:25;3.95;;;3.63;;
30743;SDS011;17486;46.738;7.622;2023-11-19T10:01:51;4.65;;;3.78;;
30743;SDS011;17486;46.738;7.622;2023-11-19T10:04:17;5.10;;;4.07;;
30743;SDS011;17486;46.738;7.622;2023-11-19T10:06:44;4.82;;;3.70;;
30743;SDS011;17486;46.738;7.622;2023-11-19T10:09:11;4.55;;;3.20;;
30743;SDS011;17486;46.738;7.622;2023-11-19T10:11:37;3.60;;;3.10;;
30743;SDS011;17486;46.738;7.622;2023-11-19T10:14:02;4.07;;;3.63;;
30743;SDS011;17486;46.738;7.622;2023-11-19T10:16:29;3.50;;;2.90;;
30743;SDS011;17486;46.738;7.622;2023-11-19T10:18:57;2.47;;;2.28;;
30743;SDS011;17486;46.738;7.622;2023-11-19T10:21:23;3.28;;;2.70;;
30743;SDS011;17486;46.738;7.622;2023-11-19T10:23:50;4.03;;;2.38;;
30743;SDS011;17486;46.738;7.622;2023-11-19T10:26:22;4.35;;;2.83;;
30743;SDS011;17486;46.738;7.622;2023-11-19T10:28:47;4.43;;;3.35;;
30743;SDS011;17486;46.738;7.622;2023-11-19T10:31:14;4.75;;;3.17;;
30743;SDS011;17486;46.738;7.622;2023-11-19T10:33:40;3.65;;;2.80;;
30743;SDS011;17486;46.738;7.622;2023-11-19T10:36:05;3.28;;;2.50;;
30743;SDS011;17486;46.738;7.622;2023-11-19T10:38:32;3.28;;;2.40;;
30743;SDS011;17486;46.738;7.622;2023-11-19T10:40:57;3.10;;;2.20;;
30743;SDS011;17486;46.738;7.622;2023-11-19T10:43:24;3.20;;;2.67;;
30743;SDS011;17486;46.738;7.622;2023-11-19T10:45:49;4.28;;;2.45;;
30743;SDS011;17486;46.738;7.622;2023-11-19T10:48:15;2.92;;;2.20;;
30743;SDS011;17486;46.738;7.622;2023-11-19T10:50:42;2.75;;;2.03;;
30743;SDS011;17486;46.738;7.622;2023-11-19T10:53:09;2.05;;;1.85;;
30743;SDS011;17486;46.738;7.622;2023-11-19T10:55:38;2.35;;;1.92;;
30743;SDS011;17486;46.738;7.622;2023-11-19T10:58:04;1.83;;;1.50;;
30743;SDS011;17486;46.738;7.622;2023-11-19T11:03:25;1.63;;;1.50;;
30743;SDS011;17486;46.738;7.622;2023-11-19T11:05:54;2.08;;;1.80;;
30743;SDS011;17486;46.738;7.622;2023-11-19T11:08:21;1.77;;;1.67;;
30743;SDS011;17486;46.738;7.622;2023-11-19T11:10:53;2.47;;;1.70;;
30743;SDS011;17486;46.738;7.622;2023-11-19T11:13:20;1.52;;;1.42;;
30743;SDS011;17486;46.738;7.622;2023-11-19T11:15:49;3.38;;;1.67;;
30743;SDS011;17486;46.738;7.622;2023-11-19T11:18:15;2.33;;;1.52;;
30743;SDS011;17486;46.738;7.622;2023-11-19T11:20:42;2.25;;;1.75;;
30743;SDS011;17486;46.738;7.622;2023-11-19T11:29:09;2.20;;;1.67;;
30743;SDS011;17486;46.738;7.622;2023-11-19T11:39:33;2.55;;;2.35;;
30743;SDS011;17486;46.738;7.622;2023-11-19T11:42:33;1.60;;;1.50;;
30743;SDS011;17486;46.738;7.622;2023-11-19T11:49:48;1.67;;;1.30;;
30743;SDS011;17486;46.738;7.622;2023-11-19T11:52:16;1.35;;;1.25;;
30743;SDS011;17486;46.738;7.622;2023-11-19T11:54:42;3.92;;;2.20;;
30743;SDS011;17486;46.738;7.622;2023-11-19T11:57:11;3.38;;;2.17;;
30743;SDS011;17486;46.738;7.622;2023-11-19T12:02:07;2.83;;;2.22;;
30743;SDS011;17486;46.738;7.622;2023-11-19T12:04:34;2.67;;;1.85;;
30743;SDS011;17486;46.738;7.622;2023-11-19T12:07:04;2.47;;;1.80;;
30743;SDS011;17486;46.738;7.622;2023-11-19T12:09:40;1.98;;;1.52;;
30743;SDS011;17486;46.738;7.622;2023-11-19T12:12:23;1.85;;;1.63;;
30743;SDS011;17486;46.738;7.622;2023-11-19T12:15:04;1.35;;;1.25;;
30743;SDS011;17486;46.738;7.622;2023-11-19T12:20:02;1.92;;;1.70;;
30743;SDS011;17486;46.738;7.622;2023-11-19T12:22:30;3.53;;;1.63;;
30743;SDS011;17486;46.738;7.622;2023-11-19T12:24:56;2.30;;;1.77;;
30743;SDS011;17486;46.738;7.622;2023-11-19T12:27:21;1.70;;;1.60;;
30743;SDS011;17486;46.738;7.622;2023-11-19T12:29:47;2.85;;;1.67;;
30743;SDS011;17486;46.738;7.622;2023-11-19T12:32:13;1.75;;;1.40;;
30743;SDS011;17486;46.738;7.622;2023-11-19T12:34:39;2.00;;;1.80;;
30743;SDS011;17486;46.738;7.622;2023-11-19T12:37:04;1.92;;;1.73;;
30743;SDS011;17486;46.738;7.622;2023-11-19T12:39:31;1.90;;;1.70;;
30743;SDS011;17486;46.738;7.622;2023-11-19T12:41:57;1.75;;;1.65;;
30743;SDS011;17486;46.738;7.622;2023-11-19T12:44:25;2.65;;;2.05;;
30743;SDS011;17486;46.738;7.622;2023-11-19T12:47:00;2.42;;;2.22;;
30743;SDS011;17486;46.738;7.622;2023-11-19T12:49:27;2.85;;;2.58;;
30743;SDS011;17486;46.738;7.622;2023-11-19T12:51:53;2.53;;;2.00;;
30743;SDS011;17486;46.738;7.622;2023-11-19T12:54:18;2.58;;;2.20;;
30743;SDS011;17486;46.738;7.622;2023-11-19T12:56:53;2.50;;;1.90;;
30743;SDS011;17486;46.738;7.622;2023-11-19T12:59:19;2.10;;;1.90;;
30743;SDS011;17486;46.738;7.622;2023-11-19T13:02:17;1.70;;;1.60;;
30743;SDS011;17486;46.738;7.622;2023-11-19T13:04:36;3.40;;;2.00;;
30743;SDS011;17486;46.738;7.622;2023-11-19T13:07:01;1.85;;;1.70;;
30743;SDS011;17486;46.738;7.622;2023-11-19T13:09:30;1.80;;;1.70;;
30743;SDS011;17486;46.738;7.622;2023-11-19T13:11:56;2.33;;;1.77;;
30743;SDS011;17486;46.738;7.622;2023-11-19T13:14:22;2.42;;;2.00;;
30743;SDS011;17486;46.738;7.622;2023-11-19T13:16:48;1.92;;;1.55;;
30743;SDS011;17486;46.738;7.622;2023-11-19T13:19:17;1.90;;;1.50;;
30743;SDS011;17486;46.738;7.622;2023-11-19T13:21:44;1.50;;;1.35;;
30743;SDS011;17486;46.738;7.622;2023-11-19T13:24:12;1.50;;;1.40;;
30743;SDS011;17486;46.738;7.622;2023-11-19T13:26:38;2.00;;;1.77;;
30743;SDS011;17486;46.738;7.622;2023-11-19T13:29:03;1.88;;;1.77;;
30743;SDS011;17486;46.738;7.622;2023-11-19T13:31:29;2.90;;;1.98;;
30743;SDS011;17486;46.738;7.622;2023-11-19T13:33:55;1.90;;;1.80;;
30743;SDS011;17486;46.738;7.622;2023-11-19T13:36:21;2.35;;;1.73;;
30743;SDS011;17486;46.738;7.622;2023-11-19T13:38:47;2.10;;;1.90;;
30743;SDS011;17486;46.738;7.622;2023-11-19T13:41:12;2.17;;;1.60;;
30743;SDS011;17486;46.738;7.622;2023-11-19T13:43:38;2.13;;;1.80;;
30743;SDS011;17486;46.738;7.622;2023-11-19T13:46:04;2.15;;;1.95;;
30743;SDS011;17486;46.738;7.622;2023-11-19T13:48:31;1.98;;;1.77;;
30743;SDS011;17486;46.738;7.622;2023-11-19T13:50:57;2.38;;;1.95;;
30743;SDS011;17486;46.738;7.622;2023-11-19T13:53:22;3.10;;;2.15;;
30743;SDS011;17486;46.738;7.622;2023-11-19T13:55:51;2.85;;;2.42;;
30743;SDS011;17486;46.738;7.622;2023-11-19T13:58:16;2.83;;;2.63;;
30743;SDS011;17486;46.738;7.622;2023-11-19T14:00:42;3.17;;;2.88;;
30743;SDS011;17486;46.738;7.622;2023-11-19T14:03:08;3.05;;;2.22;;
30743;SDS011;17486;46.738;7.622;2023-11-19T14:05:35;2.55;;;2.28;;
30743;SDS011;17486;46.738;7.622;2023-11-19T14:08:00;2.33;;;1.98;;
30743;SDS011;17486;46.738;7.622;2023-11-19T14:10:26;2.10;;;1.85;;
30743;SDS011;17486;46.738;7.622;2023-11-19T14:12:51;2.17;;;1.80;;
30743;SDS011;17486;46.738;7.622;2023-11-19T14:15:17;2.35;;;1.92;;
30743;SDS011;17486;46.738;7.622;2023-11-19T14:17:43;2.65;;;2.08;;
30743;SDS011;17486;46.738;7.622;2023-11-19T14:20:08;3.75;;;2.47;;
30743;SDS011;17486;46.738;7.622;2023-11-19T14:22:42;4.43;;;2.60;;
30743;SDS011;17486;46.738;7.622;2023-11-19T14:25:09;5.40;;;2.50;;
30743;SDS011;17486;46.738;7.622;2023-11-19T14:27:38;3.35;;;2.85;;
30743;SDS011;17486;46.738;7.622;2023-11-19T14:30:07;5.28;;;4.00;;
30743;SDS011;17486;46.738;7.622;2023-11-19T14:32:36;395.55;;;277.13;;
30743;SDS011;17486;46.738;7.622;2023-11-19T14:35:01;274.77;;;182.18;;
30743;SDS011;17486;46.738;7.622;2023-11-19T14:37:28;273.38;;;184.63;;
30743;SDS011;17486;46.738;7.622;2023-11-19T14:39:54;111.03;;;75.45;;
30743;SDS011;17486;46.738;7.622;2023-11-19T14:42:19;24.08;;;17.00;;
30743;SDS011;17486;46.738;7.622;2023-11-19T14:44:45;5.80;;;4.78;;
30743;SDS011;17486;46.738;7.622;2023-11-19T14:47:10;3.90;;;3.15;;
30743;SDS011;17486;46.738;7.622;2023-11-19T14:49:35;2.65;;;2.05;;
30743;SDS011;17486;46.738;7.622;2023-11-19T14:52:02;2.47;;;2.28;;
30743;SDS011;17486;46.738;7.622;2023-11-19T14:54:28;3.17;;;2.17;;
30743;SDS011;17486;46.738;7.622;2023-11-19T14:56:53;2.00;;;1.80;;
30743;SDS011;17486;46.738;7.622;2023-11-19T14:59:19;2.20;;;2.00;;
30743;SDS011;17486;46.738;7.622;2023-11-19T15:01:45;2.15;;;1.98;;
30743;SDS011;17486;46.738;7.622;2023-11-19T15:04:11;2.95;;;2.05;;
30743;SDS011;17486;46.738;7.622;2023-11-19T15:06:37;1.90;;;1.80;;
30743;SDS011;17486;46.738;7.622;2023-11-19T15:09:02;3.78;;;2.00;;
30743;SDS011;17486;46.738;7.622;2023-11-19T15:11:29;3.30;;;1.90;;
30743;SDS011;17486;46.738;7.622;2023-11-19T15:13:54;1.73;;;1.52;;
30743;SDS011;17486;46.738;7.622;2023-11-19T15:16:20;2.17;;;1.80;;
30743;SDS011;17486;46.738;7.622;2023-11-19T15:18:51;2.30;;;2.00;;
30743;SDS011;17486;46.738;7.622;2023-11-19T15:21:17;3.42;;;2.30;;
30743;SDS011;17486;46.738;7.622;2023-11-19T15:23:43;3.00;;;2.00;;
30743;SDS011;17486;46.738;7.622;2023-11-19T15:26:08;3.92;;;2.33;;
30743;SDS011;17486;46.738;7.622;2023-11-19T15:28:35;3.75;;;2.53;;
30743;SDS011;17486;46.738;7.622;2023-11-19T15:31:01;4.00;;;2.40;;
30743;SDS011;17486;46.738;7.622;2023-11-19T15:33:27;2.33;;;2.13;;
30743;SDS011;17486;46.738;7.622;2023-11-19T15:35:53;2.90;;;2.60;;
30743;SDS011;17486;46.738;7.622;2023-11-19T15:38:19;3.75;;;2.40;;